createdAt,value
2022-12-28T00:01:52.814Z,34.95
2022-12-28T00:04:20.937Z,38.15
2022-12-28T00:06:50.853Z,33.10
2022-12-28T00:09:19.141Z,32.05
2022-12-28T00:11:47.061Z,35.20
2022-12-28T00:14:15.297Z,30.60
2022-12-28T00:16:44.085Z,20.02
2022-12-28T00:19:15.425Z,18.33
2022-12-28T00:21:45.037Z,45.00
2022-12-28T00:24:22.270Z,44.33
2022-12-28T00:26:50.840Z,26.20
2022-12-28T00:29:20.358Z,26.17
2022-12-28T00:31:48.663Z,21.65
2022-12-28T00:34:16.818Z,28.20
2022-12-28T00:37:08.300Z,34.72
2022-12-28T00:39:32.888Z,35.13
2022-12-28T00:42:00.776Z,51.00
2022-12-28T00:44:28.919Z,41.63
2022-12-28T00:46:56.760Z,28.48
2022-12-28T00:49:24.810Z,22.90
2022-12-28T00:51:54.142Z,19.60
2022-12-28T00:54:22.084Z,23.77
2022-12-28T00:56:50.252Z,25.15
2022-12-28T00:59:18.116Z,26.15
2022-12-28T01:01:46.173Z,43.53
2022-12-28T01:04:15.261Z,41.30
2022-12-28T01:06:43.243Z,28.25
2022-12-28T01:09:11.030Z,36.00
2022-12-28T01:11:39.004Z,34.75
2022-12-28T01:14:06.876Z,50.15
2022-12-28T01:16:36.562Z,49.28
2022-12-28T01:19:06.729Z,48.78
2022-12-28T01:21:36.482Z,25.75
2022-12-28T01:24:08.239Z,14.80
2022-12-28T01:26:36.343Z,10.38
2022-12-28T01:29:04.433Z,6.18
2022-12-28T01:31:35.268Z,5.88
2022-12-28T01:34:03.914Z,5.38
2022-12-28T01:36:35.127Z,7.15
2022-12-28T01:39:05.967Z,6.57
2022-12-28T01:41:38.427Z,8.60
2022-12-28T01:44:07.488Z,7.38
2022-12-28T01:46:42.772Z,6.63
2022-12-28T01:49:27.568Z,7.00
2022-12-28T01:52:26.761Z,6.88
2022-12-28T01:55:03.197Z,5.90
2022-12-28T01:57:46.148Z,6.38
2022-12-28T02:00:32.358Z,5.97
2022-12-28T02:03:07.795Z,7.40
2022-12-28T02:05:39.807Z,6.50
2022-12-28T02:08:46.841Z,8.10
2022-12-28T02:11:18.781Z,7.10
2022-12-28T02:13:49.378Z,7.07
2022-12-28T02:16:19.540Z,11.60
2022-12-28T02:18:48.732Z,7.88
2022-12-28T02:21:28.490Z,7.68
2022-12-28T02:24:34.865Z,5.97
2022-12-28T02:27:21.185Z,7.13
2022-12-28T02:30:09.244Z,7.22
2022-12-28T02:32:47.568Z,8.07
2022-12-28T02:35:34.362Z,7.32
2022-12-28T02:38:31.356Z,6.85
2022-12-28T02:41:09.042Z,9.85
2022-12-28T02:43:37.189Z,6.47
2022-12-28T02:46:36.776Z,7.38
2022-12-28T02:49:44.402Z,6.65
2022-12-28T02:52:39.578Z,6.50
2022-12-28T02:55:44.858Z,6.60
2022-12-28T03:00:25.675Z,5.75
2022-12-28T03:03:07.307Z,15.70
2022-12-28T03:06:00.998Z,13.18
2022-12-28T03:08:51.454Z,8.35
2022-12-28T03:11:44.727Z,11.48
2022-12-28T03:14:33.060Z,12.57
2022-12-28T03:17:21.767Z,8.05
2022-12-28T03:20:23.127Z,9.18
2022-12-28T03:23:11.691Z,7.07
2022-12-28T03:26:03.740Z,7.80
2022-12-28T03:29:01.044Z,9.05
2022-12-28T03:31:32.569Z,8.00
2022-12-28T03:34:07.367Z,7.95
2022-12-28T03:36:48.834Z,9.98
2022-12-28T03:39:35.954Z,9.50
2022-12-28T03:42:30.718Z,9.45
2022-12-28T03:45:06.817Z,9.65
2022-12-28T03:47:37.947Z,7.00
2022-12-28T03:50:06.581Z,6.53
2022-12-28T03:52:34.577Z,7.72
2022-12-28T03:55:06.343Z,7.65
2022-12-28T03:57:34.557Z,8.27
2022-12-28T04:00:05.202Z,7.55
2022-12-28T04:02:43.952Z,8.10
2022-12-28T04:05:12.644Z,8.82
2022-12-28T04:07:42.079Z,12.85
2022-12-28T04:10:11.624Z,13.07
2022-12-28T04:12:39.672Z,12.63
2022-12-28T04:15:20.701Z,11.05
2022-12-28T04:17:49.214Z,10.88
2022-12-28T04:20:17.866Z,8.02
2022-12-28T04:22:46.559Z,7.28
2022-12-28T04:25:15.211Z,7.63
2022-12-28T04:27:43.796Z,8.98
2022-12-28T04:30:30.091Z,10.20
2022-12-28T04:32:58.745Z,11.55
2022-12-28T04:35:26.657Z,12.35
2022-12-28T04:37:55.496Z,9.73
2022-12-28T04:40:23.389Z,12.13
2022-12-28T04:42:51.363Z,10.88
2022-12-28T04:45:22.142Z,10.50
2022-12-28T04:47:50.260Z,10.55
2022-12-28T04:50:18.139Z,14.45
2022-12-28T04:52:46.305Z,12.05
2022-12-28T04:55:32.016Z,12.60
2022-12-28T04:58:01.702Z,13.30
2022-12-28T05:00:29.681Z,12.00
2022-12-28T05:03:00.999Z,9.45
2022-12-28T05:05:30.155Z,9.15
2022-12-28T05:08:01.786Z,8.68
2022-12-28T05:10:30.391Z,8.80
2022-12-28T05:12:58.292Z,12.65
2022-12-28T05:15:26.262Z,8.88
2022-12-28T05:17:55.571Z,8.45
2022-12-28T05:20:23.617Z,8.63
2022-12-28T05:22:51.737Z,9.30
2022-12-28T05:25:19.799Z,8.90
2022-12-28T05:27:47.657Z,8.57
2022-12-28T05:30:15.668Z,9.98
2022-12-28T05:32:43.519Z,8.80
2022-12-28T05:35:11.447Z,8.23
2022-12-28T05:37:39.347Z,7.78
2022-12-28T05:40:08.171Z,7.30
2022-12-28T05:42:37.289Z,7.93
2022-12-28T05:45:05.676Z,7.18
2022-12-28T05:47:33.656Z,12.10
2022-12-28T05:50:01.511Z,12.98
2022-12-28T05:52:30.441Z,11.43
2022-12-28T05:57:26.338Z,15.23
2022-12-28T05:59:54.218Z,20.58
2022-12-28T06:02:25.916Z,23.10
2022-12-28T06:04:54.587Z,22.65
2022-12-28T06:07:22.831Z,26.77
2022-12-28T06:09:50.816Z,20.45
2022-12-28T06:12:19.369Z,21.85
2022-12-28T06:14:47.230Z,24.58
2022-12-28T06:17:15.191Z,17.75
2022-12-28T06:19:43.197Z,20.30
2022-12-28T06:22:11.058Z,23.10
2022-12-28T06:24:39.180Z,23.98
2022-12-28T06:27:07.146Z,20.65
2022-12-28T06:29:35.307Z,24.90
2022-12-28T06:32:03.288Z,19.75
2022-12-28T06:34:31.307Z,20.55
2022-12-28T06:37:00.453Z,26.55
2022-12-28T06:39:29.401Z,20.15
2022-12-28T06:41:57.820Z,19.83
2022-12-28T06:44:25.831Z,23.27
2022-12-28T06:46:53.782Z,24.70
2022-12-28T06:49:21.904Z,28.50
2022-12-28T06:51:49.832Z,34.90
2022-12-28T06:54:17.850Z,32.83
2022-12-28T06:56:46.002Z,34.70
2022-12-28T06:59:14.009Z,34.50
2022-12-28T07:01:44.984Z,36.03
2022-12-28T07:04:13.493Z,30.83
2022-12-28T07:06:43.948Z,35.03
2022-12-28T07:09:16.419Z,36.63
2022-12-28T07:11:45.247Z,42.88
2022-12-28T07:14:13.178Z,32.65
2022-12-28T07:19:08.315Z,35.83
2022-12-28T07:21:39.111Z,36.05
2022-12-28T07:24:08.246Z,66.35
2022-12-28T07:26:37.855Z,63.13
2022-12-28T07:29:07.531Z,57.13
2022-12-28T07:31:44.119Z,52.10
2022-12-28T07:34:15.158Z,53.38
2022-12-28T07:36:44.076Z,52.22
2022-12-28T07:39:12.219Z,45.95
2022-12-28T07:41:40.337Z,44.50
2022-12-28T07:44:08.227Z,42.28
2022-12-28T07:46:38.320Z,43.58
2022-12-28T07:49:07.239Z,48.53
2022-12-28T07:51:37.105Z,47.40
2022-12-28T07:54:06.191Z,40.83
2022-12-28T07:59:04.142Z,46.30
2022-12-28T08:01:34.999Z,140.40
2022-12-28T08:04:06.231Z,81.25
2022-12-28T08:06:36.962Z,46.15
2022-12-28T08:09:06.549Z,53.10
2022-12-28T08:11:37.774Z,40.78
2022-12-28T08:14:07.523Z,41.13
2022-12-28T08:16:39.148Z,37.28
2022-12-28T08:19:08.257Z,43.40
2022-12-28T08:21:40.082Z,39.47
2022-12-28T08:24:09.428Z,35.85
2022-12-28T08:26:40.238Z,33.83
2022-12-28T08:29:12.985Z,27.58
2022-12-28T08:31:44.675Z,40.03
2022-12-28T08:34:23.560Z,51.25
2022-12-28T08:36:51.609Z,37.28
2022-12-28T08:39:19.709Z,34.35
2022-12-28T08:41:47.942Z,42.28
2022-12-28T08:44:18.989Z,33.83
2022-12-28T08:46:47.375Z,22.95
2022-12-28T08:49:15.493Z,21.67
2022-12-28T08:51:43.848Z,18.77
2022-12-28T08:54:14.036Z,15.20
2022-12-28T08:56:44.223Z,20.73
2022-12-28T08:59:17.978Z,20.63
2022-12-28T09:01:47.249Z,27.52
2022-12-28T09:04:18.352Z,23.80
2022-12-28T09:06:47.065Z,21.48
2022-12-28T09:09:17.658Z,21.27
2022-12-28T09:11:46.309Z,25.02
2022-12-28T09:14:23.213Z,26.35
2022-12-28T09:16:54.308Z,23.00
2022-12-28T09:19:25.817Z,25.33
2022-12-28T09:21:55.624Z,34.45
2022-12-28T09:24:23.821Z,38.40
2022-12-28T09:26:53.286Z,33.78
2022-12-28T09:29:22.048Z,35.45
2022-12-28T09:31:50.425Z,31.15
2022-12-28T09:34:36.591Z,31.70
2022-12-28T09:37:07.992Z,28.40
2022-12-28T09:39:36.754Z,28.85
2022-12-28T09:42:09.717Z,32.55
2022-12-28T09:44:50.527Z,41.60
2022-12-28T09:47:44.999Z,35.95
2022-12-28T09:50:16.485Z,19.25
2022-12-28T09:53:06.167Z,9.60
2022-12-28T09:55:38.436Z,20.55
2022-12-28T09:58:15.648Z,26.80
2022-12-28T10:00:54.438Z,23.42
2022-12-28T10:03:27.427Z,18.45
2022-12-28T10:05:58.276Z,14.05
2022-12-28T10:08:28.117Z,15.13
2022-12-28T10:11:00.474Z,11.25
2022-12-28T10:13:57.375Z,21.10
2022-12-28T10:16:29.771Z,12.20
2022-12-28T10:18:58.347Z,12.02
2022-12-28T10:21:32.949Z,13.48
2022-12-28T10:26:50.892Z,14.32
2022-12-28T10:29:22.061Z,12.90
2022-12-28T10:32:05.005Z,13.40
2022-12-28T10:34:35.471Z,7.07
2022-12-28T10:37:15.810Z,8.40
2022-12-28T10:40:02.116Z,5.85
2022-12-28T10:42:37.367Z,5.85
2022-12-28T10:45:20.506Z,3.17
2022-12-28T10:47:57.033Z,4.97
2022-12-28T10:50:44.014Z,3.95
2022-12-28T10:53:26.991Z,5.40
2022-12-28T10:56:15.055Z,2.95
2022-12-28T10:58:47.943Z,7.60
2022-12-28T11:01:18.245Z,6.20
2022-12-28T11:04:00.129Z,4.78
2022-12-28T11:07:00.563Z,15.38
2022-12-28T11:09:36.246Z,16.42
2022-12-28T11:12:24.429Z,8.90
2022-12-28T11:14:53.563Z,3.42
2022-12-28T11:17:34.614Z,8.98
2022-12-28T11:20:14.716Z,4.40
2022-12-28T11:22:42.963Z,8.98
2022-12-28T11:25:34.907Z,4.90
2022-12-28T11:28:14.119Z,4.93
2022-12-28T11:30:43.903Z,4.97
2022-12-28T11:33:35.837Z,6.53
2022-12-28T11:36:09.905Z,11.60
2022-12-28T11:38:39.201Z,10.40
2022-12-28T11:41:34.080Z,3.85
2022-12-28T11:44:04.893Z,5.63
2022-12-28T11:46:36.053Z,5.95
2022-12-28T11:49:23.968Z,4.40
2022-12-28T11:52:18.282Z,7.32
2022-12-28T11:55:24.694Z,5.85
2022-12-28T11:57:54.874Z,4.13
2022-12-28T12:00:24.179Z,5.40
2022-12-28T12:02:58.222Z,7.43
2022-12-28T12:05:38.836Z,6.00
2022-12-28T12:08:16.733Z,10.05
2022-12-28T12:10:46.663Z,18.90
2022-12-28T12:13:26.868Z,14.27
2022-12-28T12:16:17.622Z,5.55
2022-12-28T12:18:52.423Z,7.43
2022-12-28T12:21:30.178Z,15.95
2022-12-28T12:24:27.122Z,13.90
2022-12-28T12:27:11.790Z,14.52
2022-12-28T12:29:44.738Z,12.10
2022-12-28T12:32:25.785Z,10.77
2022-12-28T12:35:00.479Z,20.80
2022-12-28T12:37:52.659Z,21.70
2022-12-28T12:40:48.436Z,14.57
2022-12-28T12:43:41.366Z,14.07
2022-12-28T12:46:27.785Z,13.18
2022-12-28T12:49:14.277Z,13.00
2022-12-28T12:52:06.637Z,24.83
2022-12-28T12:55:02.132Z,20.48
2022-12-28T12:57:48.500Z,19.40
2022-12-28T13:00:22.608Z,22.75
2022-12-28T13:03:09.434Z,19.80
2022-12-28T13:05:42.033Z,16.95
2022-12-28T13:08:24.607Z,18.42
2022-12-28T13:10:54.812Z,14.32
2022-12-28T13:13:38.014Z,15.82
2022-12-28T13:16:17.495Z,10.98
2022-12-28T13:19:06.806Z,11.35
2022-12-28T13:21:51.062Z,14.43
2022-12-28T13:24:24.922Z,15.43
2022-12-28T13:26:54.712Z,9.00
2022-12-28T13:29:26.207Z,4.38
2022-12-28T13:31:56.015Z,7.63
2022-12-28T13:34:31.216Z,26.70
2022-12-28T13:39:34.114Z,15.98
2022-12-28T13:42:14.477Z,14.95
2022-12-28T13:44:54.024Z,5.72
2022-12-28T13:47:24.788Z,5.57
2022-12-28T13:49:52.862Z,4.13
2022-12-28T13:52:32.995Z,6.53
2022-12-28T13:55:06.963Z,9.10
2022-12-28T13:57:47.448Z,13.20
2022-12-28T14:00:23.135Z,13.95
2022-12-28T14:02:55.696Z,12.63
2022-12-28T14:05:30.224Z,17.85
2022-12-28T14:08:00.057Z,10.80
2022-12-28T14:10:29.160Z,12.32
2022-12-28T14:12:59.000Z,8.32
2022-12-28T14:15:28.217Z,5.85
2022-12-28T14:17:57.043Z,5.38
2022-12-28T14:20:25.412Z,5.13
2022-12-28T14:22:53.984Z,16.00
2022-12-28T14:25:23.106Z,9.57
2022-12-28T14:28:27.937Z,5.18
2022-12-28T14:30:56.954Z,5.47
2022-12-28T14:33:28.318Z,6.03
2022-12-28T14:36:01.836Z,7.57
2022-12-28T14:38:45.603Z,7.32
2022-12-28T14:41:28.993Z,5.47
2022-12-28T14:44:01.201Z,4.13
2022-12-28T14:46:40.089Z,4.30
2022-12-28T14:49:30.156Z,6.90
2022-12-28T14:52:19.064Z,7.22
2022-12-28T14:54:48.813Z,9.95
2022-12-28T14:57:23.338Z,10.55
2022-12-28T15:00:01.218Z,5.32
2022-12-28T15:02:35.769Z,4.65
2022-12-28T15:05:04.272Z,4.97
2022-12-28T15:07:32.217Z,4.32
2022-12-28T15:10:01.940Z,5.38
2022-12-28T15:12:30.410Z,4.32
2022-12-28T15:14:58.998Z,6.60
2022-12-28T15:17:33.195Z,5.45
2022-12-28T15:20:02.223Z,5.43
2022-12-28T15:22:30.782Z,6.95
2022-12-28T15:24:59.467Z,8.05
2022-12-28T15:27:28.328Z,10.85
2022-12-28T15:30:05.659Z,14.43
2022-12-28T15:32:34.982Z,14.25
2022-12-28T15:35:03.843Z,9.45
2022-12-28T15:40:00.627Z,11.27
2022-12-28T15:42:30.057Z,11.10
2022-12-28T15:44:59.816Z,13.10
2022-12-28T15:47:28.507Z,9.00
2022-12-28T15:49:59.869Z,10.80
2022-12-28T15:52:28.358Z,11.20
2022-12-28T15:54:56.700Z,12.25
2022-12-28T15:57:26.109Z,10.18
2022-12-28T15:59:55.252Z,11.73
2022-12-28T16:02:24.447Z,11.80
2022-12-28T16:04:53.395Z,14.05
2022-12-28T16:07:22.008Z,12.23
2022-12-28T16:09:50.481Z,11.50
2022-12-28T16:12:21.848Z,9.70
2022-12-28T16:14:50.345Z,9.55
2022-12-28T16:17:21.850Z,9.80
2022-12-28T16:19:50.382Z,11.20
2022-12-28T16:22:18.816Z,16.63
2022-12-28T16:24:48.969Z,15.18
2022-12-28T16:27:19.471Z,14.25
2022-12-28T16:29:52.735Z,13.27
2022-12-28T16:32:24.138Z,10.13
2022-12-28T16:34:55.131Z,16.80
2022-12-28T16:37:24.261Z,18.00
2022-12-28T16:39:53.946Z,13.27
2022-12-28T16:42:22.405Z,11.23
2022-12-28T16:44:51.252Z,14.70
2022-12-28T16:47:19.693Z,24.70
2022-12-28T16:49:48.386Z,14.57
2022-12-28T16:52:16.729Z,16.08
2022-12-28T16:54:45.319Z,11.80
2022-12-28T16:57:13.820Z,13.90
2022-12-28T16:59:42.232Z,15.75
2022-12-28T17:02:13.266Z,15.20
2022-12-28T17:04:42.154Z,14.50
2022-12-28T17:07:10.794Z,9.73
2022-12-28T17:09:43.042Z,12.05
2022-12-28T17:12:15.275Z,12.93
2022-12-28T17:14:43.624Z,13.32
2022-12-28T17:17:12.091Z,12.07
2022-12-28T17:19:40.443Z,11.90
2022-12-28T17:22:09.053Z,10.95
2022-12-28T17:24:37.914Z,11.45
2022-12-28T17:27:09.080Z,13.90
2022-12-28T17:29:39.480Z,13.30
2022-12-28T17:32:08.311Z,11.98
2022-12-28T17:34:37.199Z,11.93
2022-12-28T17:37:05.590Z,16.65
2022-12-28T17:39:39.551Z,13.93
2022-12-28T17:42:09.772Z,13.18
2022-12-28T17:44:38.734Z,11.32
2022-12-28T17:47:07.319Z,11.45
2022-12-28T17:49:36.059Z,10.73
2022-12-28T17:52:04.396Z,13.25
2022-12-28T17:54:33.408Z,11.10
2022-12-28T17:57:01.962Z,10.55
2022-12-28T17:59:30.838Z,10.18
2022-12-28T18:02:02.185Z,9.73
2022-12-28T18:04:31.585Z,9.32
2022-12-28T18:07:00.258Z,10.07
2022-12-28T18:09:28.975Z,9.38
2022-12-28T18:11:57.504Z,9.55
2022-12-28T18:14:26.946Z,9.85
2022-12-28T18:16:56.055Z,9.13
2022-12-28T18:19:24.620Z,10.57
2022-12-28T18:21:53.088Z,10.45
2022-12-28T18:24:21.989Z,8.30
2022-12-28T18:26:50.906Z,11.00
2022-12-28T18:29:19.368Z,11.13
2022-12-28T18:31:47.908Z,11.52
2022-12-28T18:34:17.643Z,12.18
2022-12-28T18:36:46.254Z,12.63
2022-12-28T18:39:14.986Z,11.82
2022-12-28T18:41:43.536Z,9.68
2022-12-28T18:44:11.992Z,13.82
2022-12-28T18:46:40.551Z,11.80
2022-12-28T18:49:09.095Z,13.23
2022-12-28T18:51:37.713Z,12.77
2022-12-28T18:54:06.561Z,12.85
2022-12-28T18:56:35.217Z,13.25
2022-12-28T18:59:03.847Z,17.65
2022-12-28T19:02:05.178Z,14.73
2022-12-28T19:04:21.844Z,12.15
2022-12-28T19:09:18.620Z,13.02
2022-12-28T19:11:47.339Z,13.55
2022-12-28T19:14:16.584Z,11.35
2022-12-28T19:16:45.450Z,9.48
2022-12-28T19:19:14.383Z,10.60
2022-12-28T19:21:43.663Z,11.75
2022-12-28T19:24:19.711Z,12.00
2022-12-28T19:26:48.476Z,16.58
2022-12-28T19:29:16.943Z,14.52
2022-12-28T19:31:45.519Z,13.63
2022-12-28T19:34:14.178Z,13.18
2022-12-28T19:36:42.562Z,13.00
2022-12-28T19:39:11.706Z,16.27
2022-12-28T19:41:40.697Z,19.20
2022-12-28T19:46:37.528Z,15.13
2022-12-28T19:49:06.138Z,19.13
2022-12-28T19:51:34.828Z,14.45
2022-12-28T19:54:03.527Z,13.93
2022-12-28T19:56:32.453Z,14.02
2022-12-28T19:59:06.642Z,14.00
2022-12-28T20:01:37.470Z,15.02
2022-12-28T20:04:12.887Z,16.30
2022-12-28T20:06:44.521Z,14.27
2022-12-28T20:09:14.170Z,16.33
2022-12-28T20:11:43.635Z,16.23
2022-12-28T20:14:14.441Z,14.43
2022-12-28T20:16:43.934Z,14.70
2022-12-28T20:19:13.363Z,13.18
2022-12-28T20:21:42.538Z,12.77
2022-12-28T20:26:40.055Z,13.00
2022-12-28T20:29:08.835Z,13.98
2022-12-28T20:31:37.263Z,13.25
2022-12-28T20:34:06.034Z,14.18
2022-12-28T20:36:34.733Z,13.52
2022-12-28T20:39:04.171Z,14.40
2022-12-28T20:41:52.101Z,13.40
2022-12-28T20:44:30.723Z,13.35
2022-12-28T20:47:00.467Z,12.93
2022-12-28T20:49:30.030Z,13.57
2022-12-28T20:51:58.313Z,16.30
2022-12-28T20:54:26.883Z,13.32
2022-12-28T20:56:56.242Z,15.43
2022-12-28T20:59:26.189Z,14.82
2022-12-28T21:01:54.924Z,13.45
2022-12-28T21:04:25.165Z,15.00
2022-12-28T21:06:54.705Z,15.20
2022-12-28T21:09:23.423Z,14.10
2022-12-28T21:11:51.626Z,15.77
2022-12-28T21:14:20.251Z,14.38
2022-12-28T21:16:48.998Z,13.63
2022-12-28T21:21:48.592Z,13.05
2022-12-28T21:24:17.175Z,16.02
2022-12-28T21:26:45.702Z,15.18
2022-12-28T21:29:13.735Z,14.52
2022-12-28T21:31:41.836Z,14.45
2022-12-28T21:34:10.370Z,15.50
2022-12-28T21:36:38.769Z,15.45
2022-12-28T21:39:06.781Z,16.35
2022-12-28T21:41:50.292Z,18.13
2022-12-28T21:44:24.234Z,14.05
2022-12-28T21:46:53.699Z,16.23
2022-12-28T21:49:21.768Z,16.23
2022-12-28T21:51:50.440Z,14.55
2022-12-28T21:54:20.959Z,14.68
2022-12-28T21:59:24.468Z,15.55
2022-12-28T22:02:12.064Z,14.50
2022-12-28T22:05:03.068Z,16.75
2022-12-28T22:07:34.714Z,14.30
2022-12-28T22:10:21.151Z,14.93
2022-12-28T22:12:49.188Z,15.30
2022-12-28T22:15:38.469Z,13.73
2022-12-28T22:21:09.160Z,12.00
2022-12-28T22:23:37.041Z,12.63
2022-12-28T22:26:05.181Z,13.82
2022-12-28T22:28:33.525Z,14.13
2022-12-28T22:31:08.691Z,13.13
2022-12-28T22:33:36.723Z,12.45
2022-12-28T22:36:16.588Z,11.73
2022-12-28T22:38:45.433Z,13.95
2022-12-28T22:41:13.749Z,12.60
2022-12-28T22:43:42.488Z,12.30
2022-12-28T22:46:12.157Z,14.30
2022-12-28T22:48:40.158Z,12.60
2022-12-28T22:51:10.694Z,16.98
2022-12-28T22:53:39.904Z,15.40
2022-12-28T22:56:11.540Z,15.38
2022-12-28T22:58:39.473Z,12.70
2022-12-28T23:01:12.282Z,14.27
2022-12-28T23:03:42.303Z,14.60
2022-12-28T23:06:14.535Z,12.25
2022-12-28T23:08:42.917Z,12.82
2022-12-28T23:11:32.473Z,12.20
2022-12-28T23:14:21.418Z,15.10
2022-12-28T23:16:49.996Z,16.30
2022-12-28T23:19:36.436Z,14.77
2022-12-28T23:22:24.122Z,16.17
2022-12-28T23:27:43.469Z,14.43
2022-12-28T23:30:17.848Z,16.67
2022-12-28T23:32:47.250Z,15.65
2022-12-28T23:35:16.189Z,17.17
2022-12-28T23:37:44.486Z,16.10
2022-12-28T23:40:14.820Z,23.77
2022-12-28T23:42:44.483Z,14.20
2022-12-28T23:45:14.840Z,11.70
2022-12-28T23:47:44.134Z,11.93
2022-12-28T23:52:41.102Z,11.50
2022-12-28T23:55:10.244Z,15.50
